AXM405 WMKK-WIEE
Flight info
| Callsign | AXM405 |
|---|---|
| Flight time | 0h 53m |
| Altitude | 34000 |
| Route | SALAX1D SALAX N633 PKU W22 OSNIS |
| Aircraft | A320/M-SDE3FGHIRWY/LB1 |
Departure
| Time | 2026-05-05 10:05 |
|---|---|
| Airport | Kuala Lumpur International Airport (WMKK) |
Arrival
| Time | 2026-05-05 10:59 |
|---|---|
| Airport | Minangkabau International Airport (WIEE) |
| Time | Latitude | Longitude | Altitude | Speed | Heading |
|---|---|---|---|---|---|
| 2026-05-05 09:31 | 2.74174 | 101.68467 | 42 ft | 0 kts | 146° |
| 2026-05-05 09:53 | 2.74176 | 101.68465 | 42 ft | 3 kts | 144° |
| 2026-05-05 09:53 | 2.74192 | 101.68446 | 38 ft | 4 kts | 129° |
| 2026-05-05 09:54 | 2.74207 | 101.68437 | 42 ft | 4 kts | 188° |
| 2026-05-05 09:54 | 2.74224 | 101.68446 | 37 ft | 1 kts | 208° |
| 2026-05-05 09:54 | 2.74215 | 101.68437 | 40 ft | 4 kts | 232° |
| 2026-05-05 09:54 | 2.74212 | 101.68432 | 41 ft | 0 kts | 236° |
| 2026-05-05 09:57 | 2.74203 | 101.68420 | 40 ft | 8 kts | 236° |
| 2026-05-05 09:57 | 2.74150 | 101.68341 | 41 ft | 17 kts | 236° |
| 2026-05-05 09:57 | 2.74079 | 101.68236 | 42 ft | 19 kts | 236° |
| 2026-05-05 09:58 | 2.74001 | 101.68122 | 42 ft | 21 kts | 236° |
| 2026-05-05 09:58 | 2.73939 | 101.68029 | 40 ft | 8 kts | 236° |
| 2026-05-05 09:58 | 2.73897 | 101.68035 | 39 ft | 6 kts | 146° |
| 2026-05-05 09:58 | 2.73865 | 101.68057 | 40 ft | 6 kts | 146° |
| 2026-05-05 09:59 | 2.73813 | 101.68092 | 40 ft | 9 kts | 146° |
| 2026-05-05 09:59 | 2.73764 | 101.68124 | 40 ft | 8 kts | 146° |
| 2026-05-05 09:59 | 2.73724 | 101.68151 | 40 ft | 6 kts | 146° |
| 2026-05-05 09:59 | 2.73692 | 101.68173 | 40 ft | 5 kts | 146° |
| 2026-05-05 10:00 | 2.73631 | 101.68214 | 40 ft | 16 kts | 146° |
| 2026-05-05 10:00 | 2.73528 | 101.68283 | 40 ft | 19 kts | 146° |
| 2026-05-05 10:00 | 2.73415 | 101.68359 | 40 ft | 20 kts | 146° |
| 2026-05-05 10:00 | 2.73294 | 101.68440 | 40 ft | 22 kts | 146° |
| 2026-05-05 10:01 | 2.73165 | 101.68527 | 40 ft | 23 kts | 146° |
| 2026-05-05 10:01 | 2.73027 | 101.68620 | 40 ft | 25 kts | 146° |
| 2026-05-05 10:01 | 2.72881 | 101.68718 | 40 ft | 26 kts | 146° |
| 2026-05-05 10:01 | 2.72729 | 101.68821 | 40 ft | 27 kts | 146° |
| 2026-05-05 10:02 | 2.72572 | 101.68927 | 40 ft | 28 kts | 146° |
| 2026-05-05 10:02 | 2.72429 | 101.69023 | 40 ft | 25 kts | 146° |
| 2026-05-05 10:02 | 2.72282 | 101.69122 | 40 ft | 26 kts | 146° |
| 2026-05-05 10:02 | 2.72128 | 101.69226 | 40 ft | 27 kts | 146° |
| 2026-05-05 10:03 | 2.71977 | 101.69328 | 40 ft | 20 kts | 146° |
| 2026-05-05 10:03 | 2.71880 | 101.69392 | 40 ft | 15 kts | 152° |
| 2026-05-05 10:03 | 2.71798 | 101.69357 | 40 ft | 15 kts | 248° |
| 2026-05-05 10:03 | 2.71754 | 101.69262 | 39 ft | 15 kts | 261° |
| 2026-05-05 10:04 | 2.71793 | 101.69168 | 37 ft | 15 kts | 297° |
| 2026-05-05 10:04 | 2.71846 | 101.69081 | 38 ft | 16 kts | 315° |
| 2026-05-05 10:04 | 2.72040 | 101.68945 | 38 ft | 67 kts | 325° |
| 2026-05-05 10:04 | 2.72615 | 101.68559 | 39 ft | 129 kts | 326° |
| 2026-05-05 10:05 | 2.73497 | 101.67965 | 138 ft | 168 kts | 326° |
| 2026-05-05 10:05 | 2.74464 | 101.67320 | 789 ft | 167 kts | 325° |
| 2026-05-05 10:05 | 2.75440 | 101.66671 | 1374 ft | 176 kts | 324° |
| 2026-05-05 10:05 | 2.76269 | 101.65712 | 1683 ft | 196 kts | 287° |
| 2026-05-05 10:06 | 2.76405 | 101.64289 | 1935 ft | 217 kts | 270° |
| 2026-05-05 10:06 | 2.76389 | 101.62715 | 2275 ft | 238 kts | 269° |
| 2026-05-05 10:06 | 2.76343 | 101.60976 | 2684 ft | 261 kts | 264° |
| 2026-05-05 10:06 | 2.75808 | 101.59212 | 3354 ft | 272 kts | 240° |
| 2026-05-05 10:07 | 2.74569 | 101.57771 | 4126 ft | 277 kts | 216° |
| 2026-05-05 10:07 | 2.72825 | 101.56948 | 4936 ft | 280 kts | 191° |
| 2026-05-05 10:07 | 2.70884 | 101.56936 | 5769 ft | 282 kts | 168° |
| 2026-05-05 10:07 | 2.68955 | 101.57324 | 6589 ft | 284 kts | 168° |
| 2026-05-05 10:08 | 2.66975 | 101.57534 | 7346 ft | 289 kts | 178° |
| 2026-05-05 10:08 | 2.64953 | 101.57550 | 8110 ft | 293 kts | 180° |
| 2026-05-05 10:08 | 2.62900 | 101.57515 | 8889 ft | 296 kts | 181° |
| 2026-05-05 10:08 | 2.60826 | 101.57451 | 9658 ft | 300 kts | 181° |
| 2026-05-05 10:09 | 2.58727 | 101.57379 | 10266 ft | 309 kts | 181° |
| 2026-05-05 10:09 | 2.56501 | 101.57308 | 10468 ft | 331 kts | 181° |
| 2026-05-05 10:09 | 2.54149 | 101.57239 | 10917 ft | 343 kts | 181° |
| 2026-05-05 10:09 | 2.51753 | 101.57169 | 11557 ft | 347 kts | 181° |
| 2026-05-05 10:10 | 2.49326 | 101.57100 | 12228 ft | 350 kts | 181° |
| 2026-05-05 10:10 | 2.47678 | 101.57054 | 12675 ft | 352 kts | 181° |
| 2026-05-05 10:10 | 2.45246 | 101.56988 | 13321 ft | 356 kts | 180° |
| 2026-05-05 10:10 | 2.42760 | 101.56921 | 13920 ft | 359 kts | 180° |
| 2026-05-05 10:11 | 2.40253 | 101.56855 | 14465 ft | 362 kts | 180° |
| 2026-05-05 10:11 | 2.37721 | 101.56791 | 15007 ft | 366 kts | 180° |
| 2026-05-05 10:11 | 2.35167 | 101.56726 | 15544 ft | 369 kts | 180° |
| 2026-05-05 10:11 | 2.32590 | 101.56658 | 16079 ft | 372 kts | 180° |
| 2026-05-05 10:12 | 2.29985 | 101.56586 | 16610 ft | 376 kts | 180° |
| 2026-05-05 10:12 | 2.27361 | 101.56513 | 17138 ft | 379 kts | 180° |
| 2026-05-05 10:12 | 2.24714 | 101.56438 | 17654 ft | 383 kts | 180° |
| 2026-05-05 10:12 | 2.22040 | 101.56363 | 18150 ft | 386 kts | 180° |
| 2026-05-05 10:13 | 2.19343 | 101.56278 | 18590 ft | 389 kts | 180° |
| 2026-05-05 10:13 | 2.16630 | 101.56133 | 19036 ft | 392 kts | 182° |
| 2026-05-05 10:13 | 2.13902 | 101.55943 | 19486 ft | 394 kts | 182° |
| 2026-05-05 10:13 | 2.11157 | 101.55730 | 19934 ft | 397 kts | 183° |
| 2026-05-05 10:14 | 2.08396 | 101.55510 | 20362 ft | 399 kts | 183° |
| 2026-05-05 10:14 | 2.05612 | 101.55297 | 20789 ft | 402 kts | 182° |
| 2026-05-05 10:14 | 2.02815 | 101.55100 | 21215 ft | 404 kts | 182° |
| 2026-05-05 10:14 | 2.00001 | 101.54912 | 21631 ft | 407 kts | 182° |
| 2026-05-05 10:15 | 1.97168 | 101.54723 | 22047 ft | 409 kts | 182° |
| 2026-05-05 10:15 | 1.94318 | 101.54529 | 22452 ft | 412 kts | 182° |
| 2026-05-05 10:15 | 1.91455 | 101.54332 | 22857 ft | 414 kts | 182° |
| 2026-05-05 10:15 | 1.88572 | 101.54133 | 23251 ft | 416 kts | 182° |
| 2026-05-05 10:16 | 1.85672 | 101.53935 | 23587 ft | 419 kts | 182° |
| 2026-05-05 10:16 | 1.82755 | 101.53739 | 23902 ft | 421 kts | 182° |
| 2026-05-05 10:16 | 1.79822 | 101.53541 | 24226 ft | 423 kts | 182° |
| 2026-05-05 10:16 | 1.76876 | 101.53340 | 24547 ft | 425 kts | 182° |
| 2026-05-05 10:17 | 1.73916 | 101.53136 | 24875 ft | 427 kts | 182° |
| 2026-05-05 10:17 | 1.70941 | 101.52931 | 25196 ft | 429 kts | 182° |
| 2026-05-05 10:17 | 1.67953 | 101.52726 | 25516 ft | 431 kts | 182° |
| 2026-05-05 10:17 | 1.64953 | 101.52519 | 25835 ft | 433 kts | 182° |
| 2026-05-05 10:18 | 1.61939 | 101.52312 | 26153 ft | 435 kts | 182° |
| 2026-05-05 10:18 | 1.58907 | 101.52106 | 26458 ft | 437 kts | 182° |
| 2026-05-05 10:18 | 1.55865 | 101.51900 | 26762 ft | 439 kts | 182° |
| 2026-05-05 10:18 | 1.52851 | 101.51694 | 27054 ft | 441 kts | 182° |
| 2026-05-05 10:19 | 1.49785 | 101.51487 | 27348 ft | 443 kts | 182° |
| 2026-05-05 10:19 | 1.46705 | 101.51279 | 27655 ft | 444 kts | 182° |
| 2026-05-05 10:19 | 1.43617 | 101.51068 | 27961 ft | 446 kts | 182° |
| 2026-05-05 10:19 | 1.40513 | 101.50855 | 28258 ft | 447 kts | 182° |
| 2026-05-05 10:20 | 1.37402 | 101.50640 | 28551 ft | 449 kts | 182° |
| 2026-05-05 10:20 | 1.34278 | 101.50425 | 28837 ft | 451 kts | 182° |
| 2026-05-05 10:20 | 1.31140 | 101.50211 | 29119 ft | 453 kts | 182° |
| 2026-05-05 10:20 | 1.27988 | 101.49997 | 29401 ft | 455 kts | 182° |
| 2026-05-05 10:21 | 1.24827 | 101.49782 | 29676 ft | 457 kts | 182° |
| 2026-05-05 10:21 | 1.21649 | 101.49565 | 29929 ft | 458 kts | 182° |
| 2026-05-05 10:21 | 1.18461 | 101.49346 | 30147 ft | 460 kts | 182° |
| 2026-05-05 10:21 | 1.15264 | 101.49128 | 30364 ft | 462 kts | 182° |
| 2026-05-05 10:22 | 1.12053 | 101.48910 | 30584 ft | 463 kts | 182° |
| 2026-05-05 10:22 | 1.08832 | 101.48691 | 30785 ft | 465 kts | 182° |
| 2026-05-05 10:22 | 1.05601 | 101.48469 | 31010 ft | 466 kts | 182° |
| 2026-05-05 10:22 | 1.02357 | 101.48245 | 31231 ft | 467 kts | 182° |
| 2026-05-05 10:23 | 0.99117 | 101.48024 | 31554 ft | 466 kts | 182° |
| 2026-05-05 10:23 | 0.95887 | 101.47805 | 31881 ft | 465 kts | 182° |
| 2026-05-05 10:23 | 0.92666 | 101.47588 | 32201 ft | 464 kts | 182° |
| 2026-05-05 10:23 | 0.89448 | 101.47369 | 32516 ft | 463 kts | 183° |
| 2026-05-05 10:24 | 0.86242 | 101.47150 | 32836 ft | 462 kts | 183° |
| 2026-05-05 10:24 | 0.83038 | 101.46930 | 33159 ft | 461 kts | 183° |
| 2026-05-05 10:24 | 0.79843 | 101.46709 | 33485 ft | 460 kts | 183° |
| 2026-05-05 10:24 | 0.76653 | 101.46489 | 33728 ft | 460 kts | 183° |
| 2026-05-05 10:25 | 0.70368 | 101.46058 | 33777 ft | 446 kts | 183° |
| 2026-05-05 10:25 | 0.64233 | 101.45642 | 33763 ft | 444 kts | 183° |
| 2026-05-05 10:26 | 0.58077 | 101.45225 | 33758 ft | 443 kts | 183° |
| 2026-05-05 10:26 | 0.51923 | 101.44803 | 33756 ft | 443 kts | 183° |
| 2026-05-05 10:27 | 0.45767 | 101.44380 | 33755 ft | 443 kts | 183° |
| 2026-05-05 10:27 | 0.39610 | 101.44042 | 33754 ft | 443 kts | 180° |
| 2026-05-05 10:28 | 0.33452 | 101.44043 | 33756 ft | 443 kts | 178° |
| 2026-05-05 10:28 | 0.27293 | 101.44140 | 33759 ft | 443 kts | 179° |
| 2026-05-05 10:29 | 0.21136 | 101.44174 | 33764 ft | 443 kts | 179° |
| 2026-05-05 10:29 | 0.14980 | 101.44164 | 33769 ft | 442 kts | 179° |
| 2026-05-05 10:30 | 0.08820 | 101.44151 | 33767 ft | 442 kts | 179° |
| 2026-05-05 10:30 | 0.02661 | 101.44141 | 33768 ft | 442 kts | 179° |
| 2026-05-05 10:31 | -0.03461 | 101.43112 | 32772 ft | 457 kts | 202° |
| 2026-05-05 10:31 | -0.06231 | 101.41535 | 32002 ft | 461 kts | 216° |
| 2026-05-05 10:31 | -0.08574 | 101.39361 | 31449 ft | 460 kts | 229° |
| 2026-05-05 10:32 | -0.10484 | 101.36811 | 30889 ft | 458 kts | 233° |
| 2026-05-05 10:32 | -0.12332 | 101.34226 | 30336 ft | 456 kts | 233° |
| 2026-05-05 10:32 | -0.14172 | 101.31661 | 29771 ft | 453 kts | 233° |
| 2026-05-05 10:32 | -0.16001 | 101.29106 | 29198 ft | 450 kts | 233° |
| 2026-05-05 10:33 | -0.17811 | 101.26575 | 28676 ft | 446 kts | 233° |
| 2026-05-05 10:33 | -0.19604 | 101.24065 | 28169 ft | 441 kts | 233° |
| 2026-05-05 10:33 | -0.21377 | 101.21586 | 27665 ft | 437 kts | 233° |
| 2026-05-05 10:33 | -0.23133 | 101.19130 | 27167 ft | 432 kts | 233° |
| 2026-05-05 10:34 | -0.24873 | 101.16701 | 26666 ft | 428 kts | 233° |
| 2026-05-05 10:34 | -0.26597 | 101.14288 | 26182 ft | 425 kts | 233° |
| 2026-05-05 10:34 | -0.28302 | 101.11893 | 25704 ft | 421 kts | 233° |
| 2026-05-05 10:34 | -0.29967 | 101.09553 | 25207 ft | 418 kts | 234° |
| 2026-05-05 10:35 | -0.31675 | 101.07158 | 24703 ft | 416 kts | 233° |
| 2026-05-05 10:35 | -0.33329 | 101.04844 | 24182 ft | 414 kts | 233° |
| 2026-05-05 10:35 | -0.35001 | 101.02503 | 23661 ft | 413 kts | 234° |
| 2026-05-05 10:35 | -0.36665 | 101.00170 | 23196 ft | 410 kts | 234° |
| 2026-05-05 10:36 | -0.38316 | 100.97857 | 22623 ft | 408 kts | 234° |
| 2026-05-05 10:36 | -0.39949 | 100.95567 | 22095 ft | 405 kts | 234° |
| 2026-05-05 10:36 | -0.41574 | 100.93287 | 21695 ft | 399 kts | 234° |
| 2026-05-05 10:36 | -0.43186 | 100.91027 | 21162 ft | 397 kts | 234° |
| 2026-05-05 10:37 | -0.44780 | 100.88797 | 20745 ft | 393 kts | 234° |
| 2026-05-05 10:37 | -0.46366 | 100.86579 | 20286 ft | 391 kts | 234° |
| 2026-05-05 10:37 | -0.47944 | 100.84376 | 19850 ft | 389 kts | 233° |
| 2026-05-05 10:37 | -0.49508 | 100.82187 | 19413 ft | 386 kts | 234° |
| 2026-05-05 10:38 | -0.51062 | 100.80012 | 18990 ft | 383 kts | 234° |
| 2026-05-05 10:38 | -0.52603 | 100.77852 | 18579 ft | 381 kts | 234° |
| 2026-05-05 10:38 | -0.54134 | 100.75702 | 18178 ft | 378 kts | 234° |
| 2026-05-05 10:38 | -0.55653 | 100.73566 | 17731 ft | 376 kts | 234° |
| 2026-05-05 10:39 | -0.57162 | 100.71446 | 17298 ft | 373 kts | 234° |
| 2026-05-05 10:39 | -0.58664 | 100.69341 | 16870 ft | 370 kts | 233° |
| 2026-05-05 10:39 | -0.60387 | 100.67456 | 16447 ft | 366 kts | 219° |
| 2026-05-05 10:39 | -0.62483 | 100.66048 | 16038 ft | 362 kts | 206° |
| 2026-05-05 10:40 | -0.64729 | 100.64930 | 15618 ft | 360 kts | 205° |
| 2026-05-05 10:40 | -0.66964 | 100.63819 | 15227 ft | 357 kts | 205° |
| 2026-05-05 10:40 | -0.69171 | 100.62715 | 14934 ft | 352 kts | 206° |
| 2026-05-05 10:40 | -0.71338 | 100.61627 | 14708 ft | 344 kts | 205° |
| 2026-05-05 10:41 | -0.73456 | 100.60562 | 14500 ft | 337 kts | 206° |
| 2026-05-05 10:41 | -0.75532 | 100.59518 | 14298 ft | 331 kts | 205° |
| 2026-05-05 10:41 | -0.77579 | 100.58492 | 14096 ft | 328 kts | 206° |
| 2026-05-05 10:41 | -0.79610 | 100.57471 | 13892 ft | 326 kts | 206° |
| 2026-05-05 10:42 | -0.83638 | 100.55444 | 13441 ft | 322 kts | 206° |
| 2026-05-05 10:42 | -0.85635 | 100.54437 | 13212 ft | 321 kts | 206° |
| 2026-05-05 10:42 | -0.87627 | 100.53430 | 12998 ft | 320 kts | 206° |
| 2026-05-05 10:43 | -0.89609 | 100.52428 | 12782 ft | 319 kts | 206° |
| 2026-05-05 10:43 | -0.91587 | 100.51429 | 12578 ft | 318 kts | 206° |
| 2026-05-05 10:43 | -0.93556 | 100.50434 | 12364 ft | 317 kts | 206° |
| 2026-05-05 10:43 | -0.95519 | 100.49439 | 12154 ft | 316 kts | 206° |
| 2026-05-05 10:44 | -0.97446 | 100.48461 | 11947 ft | 314 kts | 206° |
| 2026-05-05 10:44 | -0.99383 | 100.47478 | 11739 ft | 313 kts | 206° |
| 2026-05-05 10:44 | -1.01328 | 100.46497 | 11513 ft | 312 kts | 206° |
| 2026-05-05 10:44 | -1.03265 | 100.45524 | 11311 ft | 311 kts | 206° |
| 2026-05-05 10:45 | -1.05195 | 100.44556 | 11099 ft | 310 kts | 206° |
| 2026-05-05 10:45 | -1.07121 | 100.43593 | 10892 ft | 309 kts | 206° |
| 2026-05-05 10:45 | -1.09020 | 100.42596 | 10688 ft | 308 kts | 213° |
| 2026-05-05 10:45 | -1.10634 | 100.41207 | 10445 ft | 307 kts | 229° |
| 2026-05-05 10:46 | -1.11794 | 100.39426 | 10246 ft | 306 kts | 245° |
| 2026-05-05 10:46 | -1.12478 | 100.37389 | 10039 ft | 305 kts | 254° |
| 2026-05-05 10:46 | -1.13065 | 100.35365 | 9877 ft | 301 kts | 253° |
| 2026-05-05 10:46 | -1.13649 | 100.33364 | 9788 ft | 300 kts | 253° |
| 2026-05-05 10:47 | -1.14235 | 100.31366 | 9607 ft | 299 kts | 253° |
| 2026-05-05 10:47 | -1.14814 | 100.29401 | 9405 ft | 298 kts | 253° |
| 2026-05-05 10:47 | -1.15397 | 100.27420 | 9190 ft | 297 kts | 253° |
| 2026-05-05 10:47 | -1.15980 | 100.25446 | 8991 ft | 295 kts | 253° |
| 2026-05-05 10:48 | -1.16568 | 100.23454 | 8783 ft | 295 kts | 253° |
| 2026-05-05 10:48 | -1.17137 | 100.21519 | 8577 ft | 294 kts | 253° |
| 2026-05-05 10:48 | -1.17711 | 100.19564 | 8372 ft | 293 kts | 253° |
| 2026-05-05 10:48 | -1.18282 | 100.17619 | 8166 ft | 291 kts | 253° |
| 2026-05-05 10:49 | -1.18842 | 100.15678 | 7958 ft | 290 kts | 257° |
| 2026-05-05 10:49 | -1.18934 | 100.13688 | 7754 ft | 288 kts | 280° |
| 2026-05-05 10:49 | -1.18225 | 100.11838 | 7578 ft | 286 kts | 304° |
| 2026-05-05 10:49 | -1.16842 | 100.10433 | 7348 ft | 285 kts | 327° |
| 2026-05-05 10:50 | -1.15068 | 100.09562 | 7147 ft | 284 kts | 340° |
| 2026-05-05 10:50 | -1.13133 | 100.09254 | 7032 ft | 283 kts | 4° |
| 2026-05-05 10:50 | -1.11233 | 100.09733 | 6920 ft | 288 kts | 27° |
| 2026-05-05 10:50 | -1.09617 | 100.11007 | 6807 ft | 307 kts | 51° |
| 2026-05-05 10:51 | -1.08400 | 100.12804 | 6687 ft | 315 kts | 57° |
| 2026-05-05 10:51 | -1.07222 | 100.14648 | 6548 ft | 311 kts | 57° |
| 2026-05-05 10:51 | -1.06091 | 100.16431 | 6426 ft | 297 kts | 57° |
| 2026-05-05 10:51 | -1.05009 | 100.18139 | 6315 ft | 286 kts | 57° |
| 2026-05-05 10:52 | -1.03953 | 100.19804 | 6198 ft | 282 kts | 57° |
| 2026-05-05 10:52 | -1.02895 | 100.21451 | 6076 ft | 281 kts | 54° |
| 2026-05-05 10:52 | -1.01510 | 100.22799 | 5956 ft | 279 kts | 31° |
| 2026-05-05 10:52 | -0.99710 | 100.23505 | 5836 ft | 279 kts | 14° |
| 2026-05-05 10:53 | -0.97934 | 100.24247 | 5714 ft | 278 kts | 38° |
| 2026-05-05 10:53 | -0.96820 | 100.25783 | 5594 ft | 277 kts | 72° |
| 2026-05-05 10:53 | -0.96728 | 100.27670 | 5270 ft | 274 kts | 105° |
| 2026-05-05 10:53 | -0.97465 | 100.29422 | 4803 ft | 275 kts | 117° |
| 2026-05-05 10:54 | -0.98304 | 100.31118 | 4568 ft | 267 kts | 109° |
| 2026-05-05 10:54 | -0.98486 | 100.32892 | 4429 ft | 253 kts | 79° |
| 2026-05-05 10:54 | -0.97762 | 100.34421 | 4310 ft | 241 kts | 47° |
| 2026-05-05 10:54 | -0.96420 | 100.35325 | 4154 ft | 231 kts | 18° |
| 2026-05-05 10:55 | -0.94829 | 100.35448 | 3759 ft | 235 kts | 347° |
| 2026-05-05 10:55 | -0.93307 | 100.34857 | 3350 ft | 231 kts | 334° |
| 2026-05-05 10:55 | -0.91891 | 100.34186 | 2913 ft | 221 kts | 334° |
| 2026-05-05 10:55 | -0.90518 | 100.33544 | 2358 ft | 214 kts | 335° |
| 2026-05-05 10:56 | -0.89209 | 100.32939 | 2010 ft | 200 kts | 335° |
| 2026-05-05 10:56 | -0.87985 | 100.32374 | 1697 ft | 188 kts | 335° |
| 2026-05-05 10:56 | -0.86840 | 100.31846 | 1454 ft | 175 kts | 335° |
| 2026-05-05 10:56 | -0.85785 | 100.31359 | 1232 ft | 163 kts | 335° |
| 2026-05-05 10:57 | -0.84802 | 100.30905 | 1030 ft | 150 kts | 335° |
| 2026-05-05 10:57 | -0.83856 | 100.30469 | 845 ft | 146 kts | 335° |
| 2026-05-05 10:57 | -0.82951 | 100.30051 | 677 ft | 144 kts | 335° |
| 2026-05-05 10:57 | -0.82045 | 100.29632 | 506 ft | 143 kts | 335° |
| 2026-05-05 10:58 | -0.81141 | 100.29213 | 337 ft | 143 kts | 335° |
| 2026-05-05 10:58 | -0.80240 | 100.28799 | 165 ft | 143 kts | 335° |
| 2026-05-05 10:58 | -0.79357 | 100.28390 | 29 ft | 130 kts | 334° |
| 2026-05-05 10:58 | -0.78694 | 100.28080 | 30 ft | 81 kts | 335° |
| 2026-05-05 10:59 | -0.78421 | 100.27953 | 24 ft | 47 kts | 335° |
| 2026-05-05 10:59 | -0.78260 | 100.27881 | 23 ft | 11 kts | 344° |
| 2026-05-05 10:59 | -0.78191 | 100.27885 | 23 ft | 9 kts | 356° |
| 2026-05-05 10:59 | -0.78186 | 100.27848 | 23 ft | 6 kts | 184° |
| 2026-05-05 11:00 | -0.78218 | 100.27859 | 23 ft | 11 kts | 155° |
| 2026-05-05 11:00 | -0.78327 | 100.27910 | 24 ft | 20 kts | 155° |
| 2026-05-05 11:00 | -0.78447 | 100.27967 | 25 ft | 20 kts | 154° |
| 2026-05-05 11:00 | -0.78563 | 100.28022 | 26 ft | 17 kts | 146° |
| 2026-05-05 11:01 | -0.78553 | 100.28123 | 30 ft | 13 kts | 65° |
| 2026-05-05 11:01 | -0.78514 | 100.28208 | 29 ft | 14 kts | 65° |
| 2026-05-05 11:01 | -0.78482 | 100.28280 | 24 ft | 9 kts | 75° |
| 2026-05-05 11:01 | -0.78505 | 100.28323 | 24 ft | 7 kts | 153° |
| 2026-05-05 11:02 | -0.78550 | 100.28343 | 26 ft | 9 kts | 155° |
| 2026-05-05 11:02 | -0.78606 | 100.28369 | 26 ft | 8 kts | 155° |
| 2026-05-05 11:02 | -0.78645 | 100.28387 | 25 ft | 3 kts | 155° |
| 2026-05-05 11:02 | -0.78660 | 100.28404 | 24 ft | 7 kts | 115° |
| 2026-05-05 11:03 | -0.78648 | 100.28452 | 24 ft | 6 kts | 64° |
| 2026-05-05 11:03 | -0.78637 | 100.28475 | 24 ft | 1 kts | 65° |
| 2026-05-05 11:03 | -0.78633 | 100.28483 | 24 ft | 1 kts | 65° |
| 2026-05-05 11:03 | -0.78630 | 100.28490 | 24 ft | 1 kts | 65° |
| 2026-05-05 11:04 | -0.78629 | 100.28492 | 24 ft | 0 kts | 65° |